Terminal Aerodrome Forecast
Issued by NWS

Home | Current Version | Previous Version | Text Only | Print | Product List | Glossary On
Versions: 1 2 3 4 5 6 7 8 9 10 11 12 13 14 15 16 17 18 19 20 21 22 23 24 25
000
FTUS43 KBIS 182227 AAB
TAFDIK
TAF AMD
KDIK 182227Z 1822/1918 01015KT P6SM VCSH BKN015 OVC050
     FM190000 01011KT P6SM OVC035
     FM191600 03006KT P6SM VCSH OVC035=

USA.gov is the U.S. government's official web portal to all federal, state and local government web resources and services.